createdAt,value
2017-08-02T00:01:12.517Z,8.23
2017-08-02T00:03:40.125Z,9.00
2017-08-02T00:06:07.742Z,14.40
2017-08-02T00:08:35.424Z,11.00
2017-08-02T00:11:03.033Z,13.30
2017-08-02T00:13:30.657Z,11.80
2017-08-02T00:15:58.340Z,8.33
2017-08-02T00:18:25.959Z,7.60
2017-08-02T00:20:53.571Z,9.27
2017-08-02T00:23:21.244Z,9.80
2017-08-02T00:25:48.868Z,10.70
2017-08-02T00:28:16.493Z,24.53
2017-08-02T00:30:44.181Z,11.43
2017-08-02T00:33:11.808Z,7.90
2017-08-02T00:35:39.417Z,15.93
2017-08-02T00:38:07.095Z,33.03
2017-08-02T00:40:34.719Z,11.93
2017-08-02T00:43:02.405Z,9.93
2017-08-02T00:45:30.081Z,12.03
2017-08-02T00:47:57.703Z,13.63
2017-08-02T00:50:25.483Z,7.20
2017-08-02T00:52:53.164Z,10.20
2017-08-02T00:55:20.783Z,7.93
2017-08-02T00:57:48.405Z,9.43
2017-08-02T01:00:16.074Z,9.60
2017-08-02T01:02:43.921Z,13.77
2017-08-02T01:05:11.868Z,10.63
2017-08-02T01:07:39.945Z,8.40
2017-08-02T01:10:07.602Z,9.63
2017-08-02T01:12:35.671Z,16.10
2017-08-02T01:15:03.340Z,22.97
2017-08-02T01:17:30.999Z,8.13
2017-08-02T01:19:58.628Z,12.10
2017-08-02T01:22:26.313Z,10.63
2017-08-02T01:24:54.174Z,8.97
2017-08-02T01:27:22.053Z,11.63
2017-08-02T01:29:50.084Z,10.00
2017-08-02T01:32:17.899Z,11.13
2017-08-02T01:34:45.858Z,8.67
2017-08-02T01:37:13.834Z,15.90
2017-08-02T01:39:41.797Z,9.33
2017-08-02T01:42:09.769Z,17.53
2017-08-02T01:44:37.472Z,16.23
2017-08-02T01:47:05.094Z,10.83
2017-08-02T01:49:32.720Z,16.20
2017-08-02T01:52:00.401Z,13.07
2017-08-02T01:54:28.018Z,19.93
2017-08-02T01:56:56.545Z,16.63
2017-08-02T01:59:24.208Z,17.70
2017-08-02T02:01:52.028Z,8.20
2017-08-02T02:04:19.749Z,9.80
2017-08-02T02:06:47.688Z,12.10
2017-08-02T02:09:15.503Z,16.20
2017-08-02T02:11:43.453Z,11.70
2017-08-02T02:14:11.525Z,20.97
2017-08-02T02:16:39.256Z,7.53
2017-08-02T02:19:07.222Z,6.60
2017-08-02T02:21:35.330Z,12.03
2017-08-02T02:24:03.180Z,11.90
2017-08-02T02:26:30.858Z,19.20
2017-08-02T02:28:58.839Z,14.10
2017-08-02T02:31:26.799Z,13.20
2017-08-02T02:33:54.526Z,17.13
2017-08-02T02:36:22.515Z,11.73
2017-08-02T02:38:50.382Z,17.80
2017-08-02T02:41:18.126Z,17.07
2017-08-02T02:43:46.133Z,14.80
2017-08-02T02:46:14.135Z,16.33
2017-08-02T02:48:42.071Z,20.40
2017-08-02T02:51:10.111Z,11.67
2017-08-02T02:53:38.058Z,14.90
2017-08-02T02:56:06.051Z,11.87
2017-08-02T02:58:34.045Z,15.50
2017-08-02T03:01:01.818Z,10.83
2017-08-02T03:03:29.752Z,31.33
2017-08-02T03:05:57.751Z,19.03
2017-08-02T03:08:25.805Z,19.60
2017-08-02T03:13:26.314Z,22.00
2017-08-02T03:15:54.211Z,20.67
2017-08-02T03:18:22.180Z,22.80
2017-08-02T03:20:50.022Z,28.00
2017-08-02T03:23:17.943Z,11.63
2017-08-02T03:25:45.779Z,11.93
2017-08-02T03:28:13.884Z,16.57
2017-08-02T03:30:41.736Z,11.33
2017-08-02T03:33:09.422Z,19.10
2017-08-02T03:35:37.447Z,9.63
2017-08-02T03:38:05.139Z,19.17
2017-08-02T03:40:32.933Z,19.43
2017-08-02T03:43:00.722Z,36.33
2017-08-02T03:45:28.747Z,10.67
2017-08-02T03:47:56.642Z,13.13
2017-08-02T03:50:24.670Z,11.30
2017-08-02T03:52:52.537Z,18.90
2017-08-02T03:55:20.382Z,9.50
2017-08-02T03:57:48.199Z,12.40
2017-08-02T04:00:16.153Z,9.10
2017-08-02T04:02:43.983Z,6.00
2017-08-02T04:05:11.724Z,11.53
2017-08-02T04:07:39.467Z,6.77
2017-08-02T04:10:07.259Z,14.30
2017-08-02T04:12:35.385Z,9.20
2017-08-02T04:15:03.063Z,8.00
2017-08-02T04:17:30.886Z,7.83
2017-08-02T04:19:58.604Z,6.53
2017-08-02T04:22:26.612Z,23.63
2017-08-02T04:24:54.415Z,24.57
2017-08-02T04:27:22.383Z,13.33
2017-08-02T04:29:50.248Z,14.67
2017-08-02T04:32:17.961Z,12.60
2017-08-02T04:34:45.930Z,16.57
2017-08-02T04:37:13.696Z,18.90
2017-08-02T04:39:41.688Z,6.83
2017-08-02T04:42:09.429Z,5.13
2017-08-02T04:44:37.450Z,23.90
2017-08-02T04:47:05.164Z,7.87
2017-08-02T04:49:33.083Z,8.33
2017-08-02T04:52:00.898Z,5.10
2017-08-02T04:54:28.919Z,5.40
2017-08-02T04:56:56.783Z,10.70
2017-08-02T04:59:24.503Z,23.80
2017-08-02T05:01:52.366Z,8.17
2017-08-02T05:04:20.403Z,11.70
2017-08-02T05:06:48.252Z,17.83
2017-08-02T05:09:16.092Z,12.70
2017-08-02T05:11:43.959Z,6.83
2017-08-02T05:14:11.825Z,30.23
2017-08-02T05:16:39.514Z,17.20
2017-08-02T05:19:07.535Z,18.40
2017-08-02T05:21:35.630Z,19.37
2017-08-02T05:24:03.333Z,9.50
2017-08-02T05:26:31.240Z,24.43
2017-08-02T05:28:59.259Z,15.17
2017-08-02T05:31:27.102Z,15.83
2017-08-02T05:33:55.199Z,23.33
2017-08-02T05:36:23.054Z,10.40
2017-08-02T05:38:50.726Z,21.17
2017-08-02T05:41:18.768Z,21.53
2017-08-02T05:43:46.659Z,36.40
2017-08-02T05:46:14.321Z,30.57
2017-08-02T05:48:42.269Z,14.63
2017-08-02T05:51:10.261Z,12.13
2017-08-02T05:53:37.922Z,15.57
2017-08-02T05:56:06.000Z,15.60
2017-08-02T05:58:34.008Z,11.20
2017-08-02T06:01:01.855Z,13.33
2017-08-02T06:03:29.772Z,9.10
2017-08-02T06:05:57.540Z,13.53
2017-08-02T06:08:25.340Z,14.60
2017-08-02T06:10:53.330Z,13.43
2017-08-02T06:13:21.194Z,13.97
2017-08-02T06:15:48.986Z,17.03
2017-08-02T06:18:16.803Z,14.40
2017-08-02T06:20:44.874Z,23.77
2017-08-02T06:25:46.751Z,15.63
2017-08-02T06:28:14.621Z,7.27
2017-08-02T06:30:42.486Z,15.30
2017-08-02T06:33:10.347Z,6.07
2017-08-02T06:35:38.073Z,13.88
2017-08-02T06:38:06.039Z,7.40
2017-08-02T06:40:33.857Z,4.60
2017-08-02T06:43:01.799Z,13.53
2017-08-02T06:45:29.688Z,4.37
2017-08-02T06:47:57.761Z,13.50
2017-08-02T06:50:25.801Z,9.43
2017-08-02T06:52:53.891Z,3.47
2017-08-02T06:55:21.737Z,4.23
2017-08-02T06:57:49.639Z,19.83
2017-08-02T07:00:17.349Z,6.32
2017-08-02T07:02:45.214Z,3.80
2017-08-02T07:05:13.079Z,7.37
2017-08-02T07:07:40.923Z,9.30
2017-08-02T07:10:08.795Z,5.83
2017-08-02T07:12:36.838Z,8.80
2017-08-02T07:15:04.676Z,3.97
2017-08-02T07:17:32.373Z,3.97
2017-08-02T07:20:00.020Z,5.30
2017-08-02T07:22:27.876Z,6.07
2017-08-02T07:24:55.620Z,10.43
2017-08-02T07:27:23.587Z,8.00
2017-08-02T07:29:51.496Z,7.60
2017-08-02T07:32:19.365Z,8.75
2017-08-02T07:34:47.089Z,5.18
2017-08-02T07:37:14.650Z,8.23
2017-08-02T07:39:42.299Z,3.95
2017-08-02T07:42:10.006Z,4.53
2017-08-02T07:44:37.575Z,7.32
2017-08-02T07:47:05.466Z,9.00
2017-08-02T07:49:33.409Z,10.00
2017-08-02T07:52:01.261Z,3.28
2017-08-02T07:54:29.140Z,15.60
2017-08-02T07:56:56.994Z,4.70
2017-08-02T07:59:24.737Z,8.82
2017-08-02T08:01:52.731Z,5.53
2017-08-02T08:04:20.474Z,8.45
2017-08-02T08:06:48.269Z,7.12
2017-08-02T08:09:16.343Z,8.35
2017-08-02T08:11:44.175Z,7.93
2017-08-02T08:14:12.510Z,10.93
2017-08-02T08:16:42.183Z,13.35
2017-08-02T08:19:11.970Z,6.10
2017-08-02T08:21:41.957Z,5.25
2017-08-02T08:24:11.256Z,7.62
2017-08-02T08:26:41.030Z,4.45
2017-08-02T08:29:11.007Z,11.57
2017-08-02T08:31:40.742Z,9.10
2017-08-02T08:34:09.923Z,5.07
2017-08-02T08:36:37.825Z,3.37
2017-08-02T08:39:05.665Z,3.75
2017-08-02T08:41:33.534Z,4.28
2017-08-02T08:44:01.330Z,3.65
2017-08-02T08:46:29.268Z,4.72
2017-08-02T08:48:57.009Z,12.50
2017-08-02T08:51:25.002Z,13.27
2017-08-02T08:53:52.745Z,9.35
2017-08-02T08:56:20.561Z,10.05
2017-08-02T08:58:48.579Z,6.32
2017-08-02T09:01:16.498Z,5.32
2017-08-02T09:03:44.335Z,6.50
2017-08-02T09:06:12.100Z,2.72
2017-08-02T09:08:40.072Z,5.22
2017-08-02T09:11:07.818Z,2.62
2017-08-02T09:13:35.685Z,6.25
2017-08-02T09:16:03.701Z,8.10
2017-08-02T09:18:31.565Z,9.00
2017-08-02T09:20:59.336Z,4.97
2017-08-02T09:23:27.300Z,9.10
2017-08-02T09:25:55.144Z,7.62
2017-08-02T09:28:23.012Z,5.80
2017-08-02T09:30:50.695Z,39.75
2017-08-02T09:33:18.547Z,8.35
2017-08-02T09:35:46.267Z,5.75
2017-08-02T09:38:14.082Z,9.10
2017-08-02T09:40:41.960Z,11.43
2017-08-02T09:43:09.675Z,7.55
2017-08-02T09:45:37.325Z,3.72
2017-08-02T09:48:05.278Z,7.45
2017-08-02T09:50:33.223Z,8.88
2017-08-02T09:53:01.292Z,5.32
2017-08-02T09:55:30.390Z,4.30
2017-08-02T09:57:58.319Z,5.85
2017-08-02T10:00:26.327Z,6.43
2017-08-02T10:02:54.058Z,10.55
2017-08-02T10:05:22.047Z,3.45
2017-08-02T10:07:50.110Z,8.13
2017-08-02T10:10:17.999Z,12.90
2017-08-02T10:12:45.591Z,4.72
2017-08-02T10:15:13.530Z,4.72
2017-08-02T10:17:41.261Z,11.38
2017-08-02T10:20:09.204Z,4.00
2017-08-02T10:22:36.972Z,7.68
2017-08-02T10:25:04.589Z,2.58
2017-08-02T10:27:32.357Z,7.15
2017-08-02T10:29:59.980Z,2.78
2017-08-02T10:32:27.538Z,8.18
2017-08-02T10:34:55.100Z,11.52
2017-08-02T10:37:22.763Z,12.80
2017-08-02T10:39:50.305Z,12.45
2017-08-02T10:42:18.183Z,4.37
2017-08-02T10:44:45.950Z,11.50
2017-08-02T10:47:13.751Z,3.08
2017-08-02T10:49:41.462Z,2.22
2017-08-02T10:52:09.426Z,4.18
2017-08-02T10:54:37.254Z,23.87
2017-08-02T10:57:05.065Z,4.85
2017-08-02T10:59:33.034Z,4.55
2017-08-02T11:02:00.951Z,3.47
2017-08-02T11:04:28.612Z,2.92
2017-08-02T11:06:56.469Z,6.22
2017-08-02T11:09:24.258Z,3.33
2017-08-02T11:11:52.007Z,3.00
2017-08-02T11:14:20.060Z,3.90
2017-08-02T11:16:47.806Z,3.25
2017-08-02T11:19:15.772Z,6.53
2017-08-02T11:21:43.475Z,7.12
2017-08-02T11:24:11.320Z,5.90
2017-08-02T11:26:39.198Z,19.92
2017-08-02T11:29:07.265Z,3.05
2017-08-02T11:31:35.313Z,4.22
2017-08-02T11:34:03.021Z,2.95
2017-08-02T11:36:30.989Z,5.32
2017-08-02T11:38:59.033Z,3.70
2017-08-02T11:41:26.779Z,5.55
2017-08-02T11:43:54.743Z,2.85
2017-08-02T11:46:22.452Z,6.43
2017-08-02T11:48:50.303Z,9.18
2017-08-02T11:51:17.987Z,9.05
2017-08-02T11:53:45.663Z,3.25
2017-08-02T11:56:13.508Z,3.60
2017-08-02T11:58:41.184Z,5.45
2017-08-02T12:01:09.244Z,4.85
2017-08-02T12:03:37.310Z,11.68
2017-08-02T12:06:05.057Z,7.20
2017-08-02T12:08:32.905Z,4.78
2017-08-02T12:11:00.889Z,4.28
2017-08-02T12:13:28.656Z,8.50
2017-08-02T12:15:56.720Z,8.77
2017-08-02T12:18:24.667Z,4.45
2017-08-02T12:20:52.588Z,4.37
2017-08-02T12:23:20.254Z,10.88
2017-08-02T12:25:48.295Z,5.28
2017-08-02T12:28:15.986Z,6.90
2017-08-02T12:30:43.686Z,4.15
2017-08-02T12:33:11.693Z,9.82
2017-08-02T12:35:39.381Z,5.30
2017-08-02T12:38:07.104Z,8.35
2017-08-02T12:40:35.113Z,13.18
2017-08-02T12:43:02.767Z,3.78
2017-08-02T12:45:30.442Z,6.72
2017-08-02T12:47:58.496Z,4.68
2017-08-02T12:50:26.268Z,10.50
2017-08-02T12:52:54.039Z,7.40
2017-08-02T12:55:21.899Z,12.30
2017-08-02T12:57:49.565Z,9.57
2017-08-02T13:00:17.286Z,9.33
2017-08-02T13:02:45.205Z,8.90
2017-08-02T13:05:13.089Z,6.50
2017-08-02T13:07:41.035Z,6.07
2017-08-02T13:10:08.903Z,10.10
2017-08-02T13:12:36.746Z,3.90
2017-08-02T13:15:04.540Z,5.80
2017-08-02T13:17:32.407Z,4.53
2017-08-02T13:20:00.061Z,12.10
2017-08-02T13:22:27.968Z,5.87
2017-08-02T13:24:55.691Z,8.73
2017-08-02T13:27:23.354Z,11.50
2017-08-02T13:29:51.031Z,7.90
2017-08-02T13:32:18.892Z,7.70
2017-08-02T13:34:46.551Z,5.00
2017-08-02T13:37:14.215Z,5.10
2017-08-02T13:39:42.281Z,14.23
2017-08-02T13:42:10.351Z,30.27
2017-08-02T13:44:38.218Z,6.50
2017-08-02T13:47:06.264Z,5.80
2017-08-02T13:49:34.010Z,8.20
2017-08-02T13:52:02.022Z,9.50
2017-08-02T13:54:30.044Z,5.20
2017-08-02T13:56:57.862Z,9.67
2017-08-02T13:59:25.673Z,4.70
2017-08-02T14:01:53.903Z,8.43
2017-08-02T14:04:21.572Z,11.13
2017-08-02T14:06:49.482Z,13.50
2017-08-02T14:09:17.132Z,18.57
2017-08-02T14:11:44.959Z,11.27
2017-08-02T14:14:13.037Z,7.10
2017-08-02T14:16:40.696Z,8.37
2017-08-02T14:19:08.541Z,36.00
2017-08-02T14:21:36.607Z,13.60
2017-08-02T14:24:04.550Z,8.50
2017-08-02T14:26:32.599Z,5.37
2017-08-02T14:29:00.607Z,8.73
2017-08-02T14:31:28.295Z,9.30
2017-08-02T14:33:56.142Z,8.60
2017-08-02T14:36:24.451Z,15.83
2017-08-02T14:38:52.300Z,5.60
2017-08-02T14:41:19.997Z,8.17
2017-08-02T14:43:47.916Z,7.63
2017-08-02T14:46:15.582Z,13.97
2017-08-02T14:48:43.301Z,9.30
2017-08-02T14:51:11.454Z,20.30
2017-08-02T14:53:39.313Z,5.23
2017-08-02T14:56:07.326Z,4.40
2017-08-02T14:58:35.043Z,9.70
2017-08-02T15:01:02.695Z,11.10
2017-08-02T15:03:30.366Z,6.40
2017-08-02T15:05:58.370Z,9.57
2017-08-02T15:08:26.099Z,16.47
2017-08-02T15:10:53.764Z,9.93
2017-08-02T15:13:21.624Z,7.90
2017-08-02T15:15:49.290Z,7.23
2017-08-02T15:18:17.006Z,6.63
2017-08-02T15:20:45.033Z,13.63
2017-08-02T15:23:12.740Z,4.80
2017-08-02T15:25:40.704Z,8.97
2017-08-02T15:28:08.415Z,9.33
2017-08-02T15:30:36.125Z,11.50
2017-08-02T15:33:04.157Z,10.53
2017-08-02T15:35:32.023Z,9.63
2017-08-02T15:37:59.867Z,7.40
2017-08-02T15:40:27.460Z,6.30
2017-08-02T15:42:55.419Z,7.47
2017-08-02T15:45:23.271Z,16.90
2017-08-02T15:47:51.138Z,9.47
2017-08-02T15:50:18.881Z,14.77
2017-08-02T15:52:46.751Z,16.70
2017-08-02T15:55:14.538Z,13.37
2017-08-02T15:57:42.408Z,23.73
2017-08-02T16:00:10.074Z,21.43
2017-08-02T16:02:37.918Z,17.63
2017-08-02T16:05:05.598Z,18.90
2017-08-02T16:07:33.268Z,11.73
2017-08-02T16:10:00.930Z,13.43
2017-08-02T16:12:28.864Z,22.63
2017-08-02T16:14:56.728Z,26.50
2017-08-02T16:17:24.730Z,14.27
2017-08-02T16:19:52.396Z,10.77
2017-08-02T16:22:20.108Z,32.80
2017-08-02T16:24:47.919Z,43.70
2017-08-02T16:27:15.868Z,36.83
2017-08-02T16:29:43.680Z,27.10
2017-08-02T16:32:11.629Z,36.27
2017-08-02T16:34:39.417Z,20.67
2017-08-02T16:37:07.262Z,21.73
2017-08-02T16:39:35.102Z,13.20
2017-08-02T16:42:02.783Z,17.90
2017-08-02T16:44:30.513Z,11.83
2017-08-02T16:46:58.093Z,22.87
2017-08-02T16:49:25.950Z,28.70
2017-08-02T16:51:53.641Z,28.40
2017-08-02T16:54:21.298Z,22.10
2017-08-02T16:56:49.369Z,62.13
2017-08-02T16:59:17.215Z,33.93
2017-08-02T17:01:45.083Z,21.30
2017-08-02T17:04:12.973Z,17.03
2017-08-02T17:06:40.692Z,59.17
2017-08-02T17:09:08.494Z,20.00
2017-08-02T17:11:36.230Z,25.77
2017-08-02T17:14:04.233Z,14.17
2017-08-02T17:16:31.968Z,17.33
2017-08-02T17:18:59.827Z,12.20
2017-08-02T17:21:27.428Z,14.87
2017-08-02T17:23:55.304Z,11.87
2017-08-02T17:26:23.209Z,18.50
2017-08-02T17:28:51.235Z,15.60
2017-08-02T17:31:18.945Z,16.27
2017-08-02T17:33:46.761Z,14.17
2017-08-02T17:36:14.427Z,9.70
2017-08-02T17:38:42.141Z,18.77
2017-08-02T17:41:09.956Z,24.43
2017-08-02T17:43:37.799Z,20.40
2017-08-02T17:46:05.670Z,34.13
2017-08-02T17:48:33.532Z,21.40
2017-08-02T17:51:01.213Z,28.57
2017-08-02T17:53:28.949Z,25.20
2017-08-02T17:55:56.744Z,18.43
2017-08-02T17:58:24.405Z,23.50
2017-08-02T18:00:52.146Z,21.57
2017-08-02T18:03:19.927Z,19.43
2017-08-02T18:05:47.803Z,17.73
2017-08-02T18:08:15.529Z,12.50
2017-08-02T18:10:43.396Z,19.40
2017-08-02T18:13:11.402Z,27.37
2017-08-02T18:15:39.067Z,12.70
2017-08-02T18:18:06.915Z,14.17
2017-08-02T18:20:34.596Z,20.53
2017-08-02T18:23:02.304Z,14.70
2017-08-02T18:25:30.130Z,13.53
2017-08-02T18:27:57.725Z,12.73
2017-08-02T18:30:25.655Z,18.67
2017-08-02T18:32:53.421Z,23.87
2017-08-02T18:35:21.042Z,33.60
2017-08-02T18:37:48.708Z,31.50
2017-08-02T18:40:16.376Z,12.43
2017-08-02T18:42:44.019Z,11.57
2017-08-02T18:45:11.638Z,21.83
2017-08-02T18:47:39.317Z,13.83
2017-08-02T18:50:06.925Z,13.90
2017-08-02T18:52:34.540Z,10.10
2017-08-02T18:55:02.224Z,25.03
2017-08-02T18:57:29.819Z,45.90
2017-08-02T18:59:57.421Z,31.70
2017-08-02T19:02:25.244Z,25.97
2017-08-02T19:04:53.119Z,20.00
2017-08-02T19:07:20.790Z,10.60
2017-08-02T19:09:48.434Z,13.63
2017-08-02T19:12:16.315Z,15.43
2017-08-02T19:14:44.024Z,15.00
2017-08-02T19:17:11.844Z,14.80
2017-08-02T19:19:39.444Z,26.63
2017-08-02T19:22:07.176Z,10.37
2017-08-02T19:24:35.204Z,26.33
2017-08-02T19:27:02.904Z,16.50
2017-08-02T19:29:31.368Z,17.53
2017-08-02T19:32:02.233Z,17.37
2017-08-02T19:34:32.935Z,19.13
2017-08-02T19:37:02.759Z,24.07
2017-08-02T19:39:30.638Z,18.57
2017-08-02T19:41:58.300Z,19.10
2017-08-02T19:44:25.963Z,18.53
2017-08-02T19:46:53.684Z,18.97
2017-08-02T19:49:21.652Z,21.70
2017-08-02T19:51:49.312Z,15.43
2017-08-02T19:54:16.913Z,21.07
2017-08-02T19:56:44.671Z,30.90
2017-08-02T19:59:12.329Z,15.73
2017-08-02T20:01:40.184Z,15.73
2017-08-02T20:04:07.864Z,26.83
2017-08-02T20:06:35.735Z,55.43
2017-08-02T20:09:03.399Z,27.60
2017-08-02T20:11:31.065Z,16.70
2017-08-02T20:13:58.744Z,19.80
2017-08-02T20:16:26.586Z,18.40
2017-08-02T20:18:54.313Z,17.00
2017-08-02T20:21:22.054Z,17.33
2017-08-02T20:23:49.778Z,19.23
2017-08-02T20:26:17.582Z,20.67
2017-08-02T20:28:45.475Z,23.87
2017-08-02T20:31:13.183Z,25.23
2017-08-02T20:33:40.847Z,22.80
2017-08-02T20:36:08.508Z,17.33
2017-08-02T20:38:36.164Z,18.43
2017-08-02T20:41:03.942Z,34.27
2017-08-02T20:43:31.857Z,20.07
2017-08-02T20:45:59.441Z,19.50
2017-08-02T20:48:27.288Z,23.23
2017-08-02T20:50:55.254Z,30.63
2017-08-02T20:53:22.983Z,85.90
2017-08-02T20:55:51.015Z,109.97
2017-08-02T20:58:18.898Z,127.13
2017-08-02T21:00:46.605Z,135.60
2017-08-02T21:03:14.470Z,149.60
2017-08-02T21:05:42.308Z,178.23
2017-08-02T21:08:10.148Z,130.50
2017-08-02T21:10:38.027Z,109.93
2017-08-02T21:13:06.085Z,108.23
2017-08-02T21:15:33.761Z,104.07
2017-08-02T21:18:01.745Z,117.00
2017-08-02T21:20:29.501Z,107.13
2017-08-02T21:22:57.559Z,102.27
2017-08-02T21:25:25.225Z,101.90
2017-08-02T21:27:53.141Z,138.73
2017-08-02T21:30:21.103Z,124.67
2017-08-02T21:32:49.029Z,145.30
2017-08-02T21:35:17.040Z,138.03
2017-08-02T21:37:44.882Z,163.43
2017-08-02T21:40:12.634Z,73.10
2017-08-02T21:42:40.312Z,53.93
2017-08-02T21:45:08.012Z,49.40
2017-08-02T21:47:35.828Z,49.50
2017-08-02T21:50:03.889Z,44.23
2017-08-02T21:52:31.762Z,50.87
2017-08-02T21:54:59.352Z,49.50
2017-08-02T21:57:27.050Z,57.67
2017-08-02T21:59:54.930Z,36.23
2017-08-02T22:02:22.611Z,57.40
2017-08-02T22:04:50.644Z,38.93
2017-08-02T22:07:18.553Z,38.00
2017-08-02T22:09:46.281Z,33.40
2017-08-02T22:12:14.049Z,37.57
2017-08-02T22:14:41.748Z,31.73
2017-08-02T22:17:09.610Z,42.30
2017-08-02T22:19:37.525Z,33.00
2017-08-02T22:22:05.341Z,49.63
2017-08-02T22:24:33.059Z,41.20
2017-08-02T22:27:01.048Z,54.47
2017-08-02T22:29:28.740Z,50.20
2017-08-02T22:31:56.366Z,44.87
2017-08-02T22:34:24.473Z,45.80
2017-08-02T22:36:52.342Z,51.03
2017-08-02T22:39:20.185Z,61.63
2017-08-02T22:41:47.931Z,39.07
2017-08-02T22:44:15.795Z,33.70
2017-08-02T22:46:43.606Z,28.97
2017-08-02T22:49:11.467Z,32.77
2017-08-02T22:51:39.127Z,24.30
2017-08-02T22:54:06.840Z,20.37
2017-08-02T22:56:34.865Z,33.10
2017-08-02T22:59:02.529Z,20.73
2017-08-02T23:01:30.364Z,31.73
2017-08-02T23:03:58.261Z,24.23
2017-08-02T23:06:25.976Z,22.60
2017-08-02T23:08:53.983Z,24.43
2017-08-02T23:11:21.932Z,20.40
2017-08-02T23:13:49.875Z,19.30
2017-08-02T23:16:17.765Z,38.47
2017-08-02T23:18:45.439Z,27.27
2017-08-02T23:21:13.106Z,18.87
2017-08-02T23:23:40.917Z,23.73
2017-08-02T23:26:08.591Z,22.30
2017-08-02T23:28:36.500Z,33.00
2017-08-02T23:31:04.243Z,27.00
2017-08-02T23:33:32.048Z,28.47
2017-08-02T23:35:59.900Z,31.50
2017-08-02T23:38:27.579Z,27.60
2017-08-02T23:40:55.555Z,26.30
2017-08-02T23:43:23.454Z,28.87
2017-08-02T23:45:51.384Z,26.40
2017-08-02T23:48:19.457Z,23.73
2017-08-02T23:50:47.066Z,31.87
2017-08-02T23:53:14.779Z,24.50
2017-08-02T23:55:42.851Z,22.40
2017-08-02T23:58:10.582Z,21.10
